Time;durP1;ratioP1;P1;durP2;ratioP2;P2;SDS_P1;SDS_P2;PMS_P1;PMS_P2;Temp;Humidity;BMP_temperature;BMP_pressure;BME280_temperature;BME280_humidity;BME280_pressure;Samples;Min_cycle;Max_cycle;Signal;HPM_P1;HPM_P2
2023/04/07 00:00:05;;;;;;;10.20;9.30;;;;;;;;;;478752;29;1369;-77
2023/04/07 00:00:35;;;;;;;10.98;9.98;;;;;;;;;;486452;28;1358;-78
2023/04/07 00:01:56;;;;;;;11.10;10.10;;;;;;;;;;489402;28;1182;-76
2023/04/07 00:02:31;;;;;;;11.48;10.48;;;;;;;;;;487781;28;1247;-77
2023/04/07 00:02:47;;;;;;;10.35;9.45;;;;;;;;;;487698;28;1399;-77
2023/04/07 00:03:05;;;;;;;10.40;9.50;;;;;;;;;;486865;28;1181;-77
2023/04/07 00:03:40;;;;;;;11.00;10.00;;;;;;;;;;485650;28;1301;-76
2023/04/07 00:04:04;;;;;;;10.93;10.05;;;;;;;;;;486422;28;1330;-76
2023/04/07 00:04:21;;;;;;;11.05;10.05;;;;;;;;;;488823;29;1295;-75
2023/04/07 00:04:58;;;;;;;11.02;10.00;;;;;;;;;;483009;28;1399;-76
2023/04/07 00:05:41;;;;;;;10.93;10.00;;;;;;;;;;488250;28;1113;-77
2023/04/07 00:07:16;;;;;;;10.63;9.73;;;;;;;;;;486144;28;1159;-77
2023/04/07 00:07:31;;;;;;;10.50;9.60;;;;;;;;;;509517;28;1265;-78
2023/04/07 00:07:47;;;;;;;10.90;10.00;;;;;;;;;;510093;28;1331;-75
2023/04/07 00:08:02;;;;;;;10.70;9.80;;;;;;;;;;511573;28;1375;-78
2023/04/07 00:08:17;;;;;;;10.63;9.73;;;;;;;;;;511301;28;1309;-78
2023/04/07 00:08:32;;;;;;;10.45;9.55;;;;;;;;;;511784;28;1087;-77
2023/04/07 00:08:48;;;;;;;10.23;9.33;;;;;;;;;;511767;28;1307;-77
2023/04/07 00:09:03;;;;;;;10.70;9.77;;;;;;;;;;511595;28;1537;-77
2023/04/07 00:09:18;;;;;;;10.67;9.77;;;;;;;;;;510860;28;1259;-78
2023/04/07 00:09:33;;;;;;;10.67;9.70;;;;;;;;;;513370;28;1417;-78
2023/04/07 00:09:49;;;;;;;10.93;9.93;;;;;;;;;;512472;28;1200;-78
2023/04/07 00:10:04;;;;;;;10.33;9.43;;;;;;;;;;509546;29;1410;-77
2023/04/07 00:10:20;;;;;;;10.30;9.45;;;;;;;;;;507334;29;1303;-78
2023/04/07 00:10:35;;;;;;;10.80;9.90;;;;;;;;;;506475;29;1307;-78
2023/04/07 00:10:50;;;;;;;10.57;9.67;;;;;;;;;;507055;29;1427;-79
2023/04/07 00:11:06;;;;;;;10.63;9.73;;;;;;;;;;504602;29;1387;-77
2023/04/07 00:11:21;;;;;;;11.00;10.00;;;;;;;;;;507603;29;1341;-77
2023/04/07 00:11:36;;;;;;;10.83;9.83;;;;;;;;;;474913;29;1551;-77
2023/04/07 00:12:02;;;;;;;;;;;;;;;;;;;;;
2023/04/07 00:12:35;;;;;;;;;;;;;;;;;;;;;
2023/04/07 00:14:41;;;;;;;11.40;10.38;;;;;;;;;;484114;29;1301;-77
2023/04/07 00:16:53;;;;;;;10.77;9.80;;;;;;;;;;485201;29;1172;-77
2023/04/07 00:17:14;;;;;;;10.52;9.52;;;;;;;;;;478041;29;1185;-77
2023/04/07 00:18:36;;;;;;;10.98;10.05;;;;;;;;;;476738;29;1361;-77
2023/04/07 00:21:21;;;;;;;9.80;9.00;;;;;;;;;;467961;29;1284;-77
2023/04/07 00:21:55;;;;;;;10.23;9.25;;;;;;;;;;474204;29;1336;-77
2023/04/07 00:22:10;;;;;;;10.43;9.52;;;;;;;;;;478890;29;1320;-78
2023/04/07 00:23:13;;;;;;;10.18;9.30;;;;;;;;;;466448;30;1217;-76
2023/04/07 00:23:53;;;;;;;;;;;;;;;;;;;;;
2023/04/07 00:24:35;;;;;;;10.80;9.80;;;;;;;;;;473928;29;1222;-76
2023/04/07 00:25:39;;;;;;;10.75;9.77;;;;;;;;;;468644;29;1416;-77
2023/04/07 00:26:46;;;;;;;10.98;9.96;;;;;;;;;;1042564;27;20373;-75
2023/04/07 00:27:02;;;;;;;11.20;10.20;;;;;;;;;;526045;27;1265;-76
2023/04/07 00:27:17;;;;;;;11.23;10.23;;;;;;;;;;527389;27;1182;-76
2023/04/07 00:27:32;;;;;;;11.03;10.03;;;;;;;;;;528574;27;1259;-75
2023/04/07 00:27:47;;;;;;;11.03;10.03;;;;;;;;;;527818;27;1336;-78
2023/04/07 00:28:02;;;;;;;11.63;10.57;;;;;;;;;;527641;27;1282;-77
2023/04/07 00:28:17;;;;;;;12.05;10.90;;;;;;;;;;525525;28;1329;-76
2023/04/07 00:28:33;;;;;;;11.83;10.73;;;;;;;;;;526239;28;1226;-76
2023/04/07 00:28:48;;;;;;;11.63;10.63;;;;;;;;;;524805;28;1269;-76
2023/04/07 00:29:03;;;;;;;11.30;10.30;;;;;;;;;;524241;28;1220;-77
2023/04/07 00:29:18;;;;;;;10.90;10.00;;;;;;;;;;522257;28;1295;-77
2023/04/07 00:29:33;;;;;;;11.15;10.15;;;;;;;;;;523625;28;1251;-77
2023/04/07 00:29:48;;;;;;;11.80;10.70;;;;;;;;;;522336;28;1763;-77
2023/04/07 00:30:04;;;;;;;12.40;11.20;;;;;;;;;;521944;28;1301;-77
2023/04/07 00:30:19;;;;;;;12.45;11.35;;;;;;;;;;524376;28;1244;-77
2023/04/07 00:30:34;;;;;;;12.53;11.43;;;;;;;;;;521598;28;1245;-78
2023/04/07 00:31:53;;;;;;;11.30;10.35;;;;;;;;;;498718;28;1289;-76
2023/04/07 00:31:54;;;;;;;13.13;11.83;;;;;;;;;;488467;28;1262;-78
2023/04/07 00:32:09;;;;;;;10.93;10.02;;;;;;;;;;501146;28;1281;-77
2023/04/07 00:34:01;;;;;;;12.35;11.25;;;;;;;;;;501157;28;1138;-77
2023/04/07 00:34:10;;;;;;;;;;;;;;;;;;;;;
2023/04/07 00:36:38;;;;;;;11.80;10.73;;;;;;;;;;483307;29;1190;-77
2023/04/07 00:37:05;;;;;;;11.52;10.52;;;;;;;;;;480404;29;1316;-77
2023/04/07 00:37:26;;;;;;;11.70;10.70;;;;;;;;;;492374;28;1367;-78
2023/04/07 00:37:51;;;;;;;11.85;10.75;;;;;;;;;;487598;28;1108;-77
2023/04/07 00:38:09;;;;;;;11.52;10.45;;;;;;;;;;488565;28;1313;-77
2023/04/07 00:38:48;;;;;;;11.20;10.20;;;;;;;;;;485478;28;1223;-78
2023/04/07 00:40:05;;;;;;;;;;;;;;;;;;;;;
2023/04/07 00:40:05;;;;;;;;;;;;;;;;;;;;;
2023/04/07 00:40:32;;;;;;;12.32;11.20;;;;;;;;;;493518;28;1451;-76
2023/04/07 00:41:07;;;;;;;12.13;11.02;;;;;;;;;;493112;28;1265;-77
2023/04/07 00:41:26;;;;;;;12.30;11.10;;;;;;;;;;493620;28;1428;-76
2023/04/07 00:41:45;;;;;;;11.73;10.63;;;;;;;;;;496206;28;1251;-76
2023/04/07 00:42:46;;;;;;;12.20;11.07;;;;;;;;;;493421;28;1288;-76
2023/04/07 00:43:49;;;;;;;;;;;;;;;;;;;;;
2023/04/07 00:44:05;;;;;;;11.70;10.65;;;;;;;;;;486310;28;1388;-77
2023/04/07 00:44:35;;;;;;;;;;;;;;;;;;;;;
2023/04/07 00:44:54;;;;;;;12.32;11.13;;;;;;;;;;491559;28;984;-77
2023/04/07 00:45:10;;;;;;;12.40;11.30;;;;;;;;;;494788;28;1247;-77
2023/04/07 00:45:52;;;;;;;12.23;11.13;;;;;;;;;;489709;28;1098;-77
2023/04/07 00:46:08;;;;;;;12.05;10.88;;;;;;;;;;488466;28;1565;-78
2023/04/07 00:46:36;;;;;;;12.23;11.13;;;;;;;;;;500224;28;2013;-77
2023/04/07 00:46:55;;;;;;;12.48;11.38;;;;;;;;;;500704;28;1355;-78
2023/04/07 00:47:31;;;;;;;12.32;11.20;;;;;;;;;;502492;28;1415;-77
2023/04/07 00:49:22;;;;;;;12.70;11.50;;;;;;;;;;486338;28;1332;-77
2023/04/07 00:50:05;;;;;;;12.80;11.70;;;;;;;;;;488444;28;1495;-77
2023/04/07 00:50:57;;;;;;;12.38;11.18;;;;;;;;;;490772;28;1220;-77
2023/04/07 00:51:16;;;;;;;12.40;11.30;;;;;;;;;;484071;29;1286;-77
2023/04/07 00:51:41;;;;;;;12.48;11.38;;;;;;;;;;492438;28;1230;-76
2023/04/07 00:52:10;;;;;;;11.80;10.70;;;;;;;;;;486229;28;1205;-77
2023/04/07 00:52:46;;;;;;;11.57;10.48;;;;;;;;;;488010;28;1286;-77
2023/04/07 00:53:04;;;;;;;12.10;11.00;;;;;;;;;;480888;29;1269;-78
2023/04/07 00:55:54;;;;;;;12.40;11.30;;;;;;;;;;468307;29;1803;-78
2023/04/07 00:56:02;;;;;;;12.68;11.48;;;;;;;;;;475037;29;1243;-77
2023/04/07 00:56:26;;;;;;;12.77;11.57;;;;;;;;;;470367;29;2005;-77
2023/04/07 00:56:56;;;;;;;12.65;11.55;;;;;;;;;;474986;29;1572;-79
2023/04/07 00:58:06;;;;;;;12.35;11.25;;;;;;;;;;469126;29;1181;-78
2023/04/07 00:59:37;;;;;;;12.75;11.55;;;;;;;;;;477822;29;1284;-79
2023/04/07 00:59:53;;;;;;;12.60;11.50;;;;;;;;;;464500;29;1413;-77
2023/04/07 01:00:09;;;;;;;12.55;11.45;;;;;;;;;;501021;29;1310;-78
2023/04/07 01:00:25;;;;;;;12.30;11.20;;;;;;;;;;501124;29;1310;-78
2023/04/07 01:00:47;;;;;;;12.38;11.27;;;;;;;;;;501253;29;1272;-78
2023/04/07 01:01:03;;;;;;;12.77;11.57;;;;;;;;;;502312;29;1328;-79
2023/04/07 01:01:21;;;;;;;13.45;12.18;;;;;;;;;;503468;29;1480;-78
2023/04/07 01:01:55;;;;;;;12.70;11.50;;;;;;;;;;505031;29;1389;-78
2023/04/07 01:02:19;;;;;;;12.35;11.25;;;;;;;;;;505267;29;1401;-77
2023/04/07 01:02:41;;;;;;;12.05;10.95;;;;;;;;;;506576;29;1416;-78
2023/04/07 01:02:58;;;;;;;12.88;11.77;;;;;;;;;;506522;29;1725;-78
2023/04/07 01:03:19;;;;;;;13.10;12.00;;;;;;;;;;503339;29;938;-77
2023/04/07 01:03:45;;;;;;;12.73;11.63;;;;;;;;;;503700;29;1269;-78
2023/04/07 01:04:03;;;;;;;11.90;10.90;;;;;;;;;;506115;29;1669;-76
2023/04/07 01:04:29;;;;;;;12.00;10.98;;;;;;;;;;468260;29;1255;-79
2023/04/07 01:04:53;;;;;;;12.63;11.50;;;;;;;;;;474125;29;1260;-77
2023/04/07 01:05:38;;;;;;;11.88;10.88;;;;;;;;;;473469;29;1216;-77
2023/04/07 01:06:01;;;;;;;13.02;11.82;;;;;;;;;;475064;29;1280;-78
2023/04/07 01:06:29;;;;;;;13.70;12.40;;;;;;;;;;480416;29;1951;-77
2023/04/07 01:06:59;;;;;;;12.88;11.68;;;;;;;;;;478832;29;1194;-78
2023/04/07 01:07:44;;;;;;;11.82;10.75;;;;;;;;;;483276;29;1255;-77
2023/04/07 01:08:21;;;;;;;12.52;11.43;;;;;;;;;;470623;29;1273;-78
2023/04/07 01:08:37;;;;;;;13.02;11.82;;;;;;;;;;477962;29;1233;-77
2023/04/07 01:09:04;;;;;;;13.13;11.82;;;;;;;;;;475407;29;1228;-77
2023/04/07 01:09:55;;;;;;;13.00;11.80;;;;;;;;;;477316;29;1176;-77
2023/04/07 01:10:18;;;;;;;13.57;12.30;;;;;;;;;;475927;29;1315;-77
2023/04/07 01:11:07;;;;;;;12.90;11.80;;;;;;;;;;475182;29;1359;-77
2023/04/07 01:11:55;;;;;;;12.88;11.68;;;;;;;;;;484158;29;1740;-76
2023/04/07 01:13:23;;;;;;;12.93;11.73;;;;;;;;;;479240;29;1163;-77
2023/04/07 01:14:43;;;;;;;12.52;11.43;;;;;;;;;;480201;29;1283;-76
2023/04/07 01:16:03;;;;;;;13.80;12.50;;;;;;;;;;468985;29;1192;-76
2023/04/07 01:16:22;;;;;;;13.90;12.60;;;;;;;;;;473049;29;893;-77
2023/04/07 01:16:56;;;;;;;13.15;11.95;;;;;;;;;;472473;29;1790;-78
2023/04/07 01:18:00;;;;;;;13.13;11.93;;;;;;;;;;468872;29;1480;-77
2023/04/07 01:18:08;;;;;;;14.10;12.80;;;;;;;;;;471424;29;1387;-77
2023/04/07 01:19:37;;;;;;;13.60;12.30;;;;;;;;;;468035;30;889;-76
2023/04/07 01:21:56;;;;;;;14.30;13.00;;;;;;;;;;467299;30;1628;-76
2023/04/07 01:22:13;;;;;;;14.38;13.05;;;;;;;;;;469458;30;1235;-76
2023/04/07 01:23:46;;;;;;;15.27;13.68;;;;;;;;;;471960;30;1080;-77
2023/04/07 01:25:13;;;;;;;14.52;13.13;;;;;;;;;;468076;30;1015;-77
2023/04/07 01:25:55;;;;;;;14.02;12.77;;;;;;;;;;471798;30;1151;-78
2023/04/07 01:27:38;;;;;;;14.63;13.23;;;;;;;;;;469490;30;1302;-76
2023/04/07 01:28:09;;;;;;;13.82;12.63;;;;;;;;;;470004;29;1278;-78
2023/04/07 01:29:05;;;;;;;14.43;13.02;;;;;;;;;;469636;29;1637;-77
2023/04/07 01:29:31;;;;;;;13.95;12.65;;;;;;;;;;477264;29;1348;-76
2023/04/07 01:29:49;;;;;;;13.45;12.25;;;;;;;;;;475347;29;1171;-77
2023/04/07 01:30:08;;;;;;;13.48;12.18;;;;;;;;;;475423;29;1373;-77
2023/04/07 01:30:36;;;;;;;13.70;12.38;;;;;;;;;;475084;29;1419;-78
2023/04/07 01:31:02;;;;;;;14.10;12.77;;;;;;;;;;468470;29;1242;-77
2023/04/07 01:31:22;;;;;;;22.05;18.20;;;;;;;;;;475222;29;1264;-77
2023/04/07 01:32:52;;;;;;;16.95;15.25;;;;;;;;;;480670;29;1296;-78
2023/04/07 01:33:08;;;;;;;16.30;14.70;;;;;;;;;;481292;29;1247;-77
2023/04/07 01:33:37;;;;;;;15.85;14.30;;;;;;;;;;484520;29;1258;-78
2023/04/07 01:35:20;;;;;;;19.65;16.63;;;;;;;;;;480786;29;1137;-77
2023/04/07 01:35:27;;;;;;;;;;;;;;;;;;;;;
2023/04/07 01:37:51;;;;;;;27.50;22.63;;;;;;;;;;488553;28;1247;-76
2023/04/07 01:38:13;;;;;;;19.20;16.77;;;;;;;;;;484929;29;1244;-77
2023/04/07 01:38:50;;;;;;;18.65;16.35;;;;;;;;;;485048;29;1224;-76
2023/04/07 01:39:25;;;;;;;16.08;14.52;;;;;;;;;;482618;29;1778;-78
2023/04/07 01:39:46;;;;;;;14.45;13.05;;;;;;;;;;479325;29;1284;-78
2023/04/07 01:40:06;;;;;;;14.65;13.25;;;;;;;;;;483809;29;1434;-77
2023/04/07 01:42:18;;;;;;;14.98;13.52;;;;;;;;;;482807;29;930;-77
2023/04/07 01:42:54;;;;;;;14.25;12.95;;;;;;;;;;486729;29;2390;-76
2023/04/07 01:43:30;;;;;;;13.98;12.65;;;;;;;;;;487481;29;1306;-78
2023/04/07 01:43:47;;;;;;;16.15;14.48;;;;;;;;;;485296;29;1114;-77
2023/04/07 01:44:10;;;;;;;22.00;18.02;;;;;;;;;;483280;29;1301;-76
2023/04/07 01:44:29;;;;;;;23.85;20.50;;;;;;;;;;482358;29;1382;-77
2023/04/07 01:45:06;;;;;;;20.55;18.33;;;;;;;;;;483339;29;1472;-78
2023/04/07 01:45:31;;;;;;;29.40;23.20;;;;;;;;;;482395;29;1326;-77
2023/04/07 01:46:05;;;;;;;25.13;21.50;;;;;;;;;;478689;29;1155;-76
2023/04/07 01:46:47;;;;;;;23.52;20.25;;;;;;;;;;479799;29;2016;-76
2023/04/07 01:47:29;;;;;;;;;;;;;;;;;;;;;
2023/04/07 01:47:56;;;;;;;16.90;15.23;;;;;;;;;;483299;29;1333;-78
2023/04/07 01:49:24;;;;;;;;;;;;;;;;;;;;;
2023/04/07 01:50:03;;;;;;;15.95;14.38;;;;;;;;;;477387;29;1206;-77
2023/04/07 01:50:31;;;;;;;15.07;13.55;;;;;;;;;;482374;29;1382;-78
2023/04/07 01:50:51;;;;;;;15.10;13.68;;;;;;;;;;477778;29;1138;-77
2023/04/07 01:51:20;;;;;;;14.65;13.35;;;;;;;;;;478976;29;1668;-78
2023/04/07 01:51:55;;;;;;;15.35;13.95;;;;;;;;;;480278;29;1292;-78
2023/04/07 01:52:20;;;;;;;15.00;13.60;;;;;;;;;;479297;29;1536;-77
2023/04/07 01:53:43;;;;;;;;;;;;;;;;;;;;;
2023/04/07 01:54:26;;;;;;;16.77;15.10;;;;;;;;;;481046;29;1159;-77
2023/04/07 01:56:29;;;;;;;14.52;13.10;;;;;;;;;;474853;29;1404;-78
2023/04/07 01:56:45;;;;;;;15.55;13.90;;;;;;;;;;471282;29;1314;-78
2023/04/07 01:57:11;;;;;;;;;;;;;;;;;;;;;
2023/04/07 01:57:33;;;;;;;15.23;13.73;;;;;;;;;;468727;29;1224;-77
2023/04/07 01:58:09;;;;;;;14.88;13.48;;;;;;;;;;475532;29;1624;-78
2023/04/07 01:59:59;;;;;;;14.57;13.18;;;;;;;;;;477877;29;1237;-78
2023/04/07 02:00:23;;;;;;;16.58;14.88;;;;;;;;;;476243;29;1353;-77
2023/04/07 02:01:44;;;;;;;14.70;13.18;;;;;;;;;;476562;29;891;-77
2023/04/07 02:02:17;;;;;;;13.93;12.63;;;;;;;;;;476205;29;1644;-77
2023/04/07 02:03:19;;;;;;;;;;;;;;;;;;;;;
2023/04/07 02:03:55;;;;;;;13.00;11.90;;;;;;;;;;476225;29;2045;-79
2023/04/07 02:05:14;;;;;;;;;;;;;;;;;;;;;
2023/04/07 02:05:55;;;;;;;13.75;12.50;;;;;;;;;;473787;29;1833;-77
2023/04/07 02:07:14;;;;;;;13.15;12.05;;;;;;;;;;474186;29;1348;-77
2023/04/07 02:07:45;;;;;;;13.40;12.18;;;;;;;;;;474658;29;1756;-77
2023/04/07 02:08:02;;;;;;;14.43;13.10;;;;;;;;;;477182;29;1369;-78
2023/04/07 02:08:23;;;;;;;14.98;13.57;;;;;;;;;;481284;29;1490;-77
2023/04/07 02:09:41;;;;;;;14.95;13.55;;;;;;;;;;475135;29;1237;-77
2023/04/07 02:10:13;;;;;;;;;;;;;;;;;;;;;
2023/04/07 02:10:42;;;;;;;14.32;13.00;;;;;;;;;;475501;29;1224;-76
2023/04/07 02:12:01;;;;;;;13.93;12.73;;;;;;;;;;473941;29;1461;-77
2023/04/07 02:12:36;;;;;;;14.35;13.05;;;;;;;;;;471854;29;1353;-77
2023/04/07 02:13:14;;;;;;;;;;;;;;;;;;;;;
2023/04/07 02:14:08;;;;;;;14.93;13.52;;;;;;;;;;473626;29;1029;-79
2023/04/07 02:14:24;;;;;;;14.05;12.85;;;;;;;;;;466250;29;1318;-77
2023/04/07 02:15:07;;;;;;;13.65;12.45;;;;;;;;;;470322;29;1245;-78
2023/04/07 02:15:26;;;;;;;14.95;13.55;;;;;;;;;;463506;30;1436;-78
2023/04/07 02:16:04;;;;;;;14.13;12.88;;;;;;;;;;468713;30;1322;-77
2023/04/07 02:16:46;;;;;;;15.02;13.60;;;;;;;;;;467767;30;1304;-78
2023/04/07 02:18:11;;;;;;;15.57;14.10;;;;;;;;;;465159;30;1185;-78
2023/04/07 02:19:43;;;;;;;14.93;13.63;;;;;;;;;;466483;30;1285;-77
2023/04/07 02:20:10;;;;;;;15.48;13.98;;;;;;;;;;468669;30;1540;-77
2023/04/07 02:20:36;;;;;;;14.70;13.30;;;;;;;;;;469191;30;1423;-76
2023/04/07 02:20:52;;;;;;;14.40;13.10;;;;;;;;;;465824;29;1141;-76
2023/04/07 02:21:43;;;;;;;13.80;12.50;;;;;;;;;;469653;29;1312;-76
2023/04/07 02:24:00;;;;;;;13.65;12.38;;;;;;;;;;464705;30;1186;-76
2023/04/07 02:24:19;;;;;;;13.25;11.95;;;;;;;;;;465983;30;1279;-76
2023/04/07 02:25:03;;;;;;;;;;;;;;;;;;;;;
2023/04/07 02:26:55;;;;;;;13.90;12.70;;;;;;;;;;461423;30;1129;-77
2023/04/07 02:27:19;;;;;;;13.10;11.90;;;;;;;;;;465936;29;1361;-78
2023/04/07 02:27:35;;;;;;;13.18;11.98;;;;;;;;;;468170;30;1379;-76
2023/04/07 02:28:21;;;;;;;;;;;;;;;;;;;;;
2023/04/07 02:30:05;;;;;;;14.15;12.82;;;;;;;;;;460485;30;1447;-78
2023/04/07 02:30:28;;;;;;;13.82;12.60;;;;;;;;;;471318;30;1933;-79
2023/04/07 02:33:44;;;;;;;14.63;13.27;;;;;;;;;;456082;30;1867;-78
2023/04/07 02:34:09;;;;;;;14.88;13.45;;;;;;;;;;460460;30;1299;-78
2023/04/07 02:34:31;;;;;;;14.82;13.38;;;;;;;;;;459921;30;1231;-78
2023/04/07 02:34:56;;;;;;;13.95;12.60;;;;;;;;;;462213;30;1315;-78
2023/04/07 02:35:11;;;;;;;14.68;13.27;;;;;;;;;;463597;30;2043;-76
2023/04/07 02:35:49;;;;;;;14.95;13.55;;;;;;;;;;460657;30;1987;-77
2023/04/07 02:36:05;;;;;;;14.73;13.35;;;;;;;;;;464341;30;1264;-78
2023/04/07 02:36:41;;;;;;;14.07;12.77;;;;;;;;;;462694;30;1341;-77
2023/04/07 02:37:11;;;;;;;13.52;12.32;;;;;;;;;;463763;30;1374;-76
2023/04/07 02:37:41;;;;;;;;;;;;;;;;;;;;;
2023/04/07 02:39:09;;;;;;;15.18;13.77;;;;;;;;;;461277;30;1837;-76
2023/04/07 02:40:22;;;;;;;15.45;13.95;;;;;;;;;;461105;30;1406;-77
2023/04/07 02:40:58;;;;;;;13.65;12.45;;;;;;;;;;461373;30;1447;-76
2023/04/07 02:53:36;;;;;;;16.54;14.97;;;;;;;;;;1061243;27;20325;-76
2023/04/07 02:53:51;;;;;;;16.48;14.90;;;;;;;;;;529100;27;1091;-76
2023/04/07 02:54:07;;;;;;;15.90;14.40;;;;;;;;;;527678;27;1173;-76
2023/04/07 02:54:22;;;;;;;14.70;13.40;;;;;;;;;;528569;27;1166;-76
2023/04/07 02:54:37;;;;;;;15.50;14.10;;;;;;;;;;527154;27;1320;-76
2023/04/07 02:54:52;;;;;;;16.53;15.00;;;;;;;;;;524854;28;1266;-75
2023/04/07 02:55:08;;;;;;;16.30;14.70;;;;;;;;;;526558;28;1427;-76
2023/04/07 02:55:23;;;;;;;16.93;15.33;;;;;;;;;;524213;28;1416;-75
2023/04/07 02:55:38;;;;;;;16.38;14.93;;;;;;;;;;521597;28;1176;-77
2023/04/07 02:55:54;;;;;;;15.20;13.80;;;;;;;;;;522935;28;1159;-76
2023/04/07 02:56:09;;;;;;;15.60;14.20;;;;;;;;;;524504;28;1210;-76
2023/04/07 02:56:24;;;;;;;16.60;15.10;;;;;;;;;;523924;28;1214;-75
2023/04/07 02:56:39;;;;;;;17.55;15.90;;;;;;;;;;523641;28;985;-77
2023/04/07 02:56:56;;;;;;;17.90;16.20;;;;;;;;;;524262;28;1338;-76
2023/04/07 02:57:12;;;;;;;17.60;15.95;;;;;;;;;;524253;28;1262;-76
2023/04/07 02:57:27;;;;;;;17.08;15.50;;;;;;;;;;521724;28;1262;-75
2023/04/07 02:57:43;;;;;;;16.87;15.30;;;;;;;;;;478443;28;1068;-77
2023/04/07 02:58:07;;;;;;;17.53;15.93;;;;;;;;;;480608;28;1446;-75
2023/04/07 02:58:23;;;;;;;18.45;16.75;;;;;;;;;;484389;28;2010;-74
2023/04/07 02:58:38;;;;;;;18.33;16.63;;;;;;;;;;487912;28;1218;-76
2023/04/07 02:58:56;;;;;;;18.55;16.75;;;;;;;;;;490852;28;1196;-74
2023/04/07 02:59:32;;;;;;;18.67;16.98;;;;;;;;;;497756;28;1267;-75
2023/04/07 03:00:09;;;;;;;18.63;16.83;;;;;;;;;;498298;28;1615;-75
2023/04/07 03:01:39;;;;;;;17.38;15.77;;;;;;;;;;495467;28;1578;-76
2023/04/07 03:01:58;;;;;;;17.10;15.60;;;;;;;;;;498030;28;1276;-75
2023/04/07 03:02:29;;;;;;;16.80;15.30;;;;;;;;;;497030;28;1400;-75
2023/04/07 03:03:12;;;;;;;;;;;;;;;;;;;;;
2023/04/07 03:03:53;;;;;;;;;;;;;;;;;;;;;
2023/04/07 03:04:18;;;;;;;17.70;16.08;;;;;;;;;;504473;27;1119;-75
2023/04/07 03:05:10;;;;;;;;;;;;;;;;;;;;;
2023/04/07 03:05:32;;;;;;;17.90;16.20;;;;;;;;;;501732;28;1330;-76
2023/04/07 03:08:05;;;;;;;19.40;17.60;;;;;;;;;;480028;28;1204;-76
2023/04/07 03:08:37;;;;;;;;;;;;;;;;;;;;;
2023/04/07 03:09:07;;;;;;;18.63;16.77;;;;;;;;;;487666;28;1202;-79
2023/04/07 03:09:26;;;;;;;16.20;14.70;;;;;;;;;;490225;28;1140;-76
2023/04/07 03:10:43;;;;;;;;;;;;;;;;;;;;;
2023/04/07 03:11:15;;;;;;;;;;;;;;;;;;;;;
2023/04/07 03:12:37;;;;;;;16.75;15.15;;;;;;;;;;481574;29;1335;-76
2023/04/07 03:12:53;;;;;;;17.38;15.77;;;;;;;;;;488009;28;1552;-76
2023/04/07 03:13:09;;;;;;;16.90;15.38;;;;;;;;;;484113;28;1233;-77
2023/04/07 03:13:51;;;;;;;17.35;15.75;;;;;;;;;;488299;28;1282;-76
2023/04/07 03:14:16;;;;;;;18.70;16.98;;;;;;;;;;491006;28;1763;-76
2023/04/07 03:14:52;;;;;;;18.23;16.52;;;;;;;;;;490248;28;1301;-76
2023/04/07 03:15:20;;;;;;;;;;;;;;;;;;;;;
2023/04/07 03:16:07;;;;;;;16.67;15.18;;;;;;;;;;493120;28;1202;-76
2023/04/07 03:16:38;;;;;;;17.23;15.63;;;;;;;;;;493737;28;1150;-76
2023/04/07 03:16:56;;;;;;;18.30;16.60;;;;;;;;;;491258;28;1390;-76
2023/04/07 03:17:12;;;;;;;18.48;16.77;;;;;;;;;;493648;28;1199;-76
2023/04/07 03:17:51;;;;;;;18.67;16.97;;;;;;;;;;493560;28;1130;-76
2023/04/07 03:19:02;;;;;;;17.08;15.48;;;;;;;;;;497567;28;897;-75
2023/04/07 03:19:29;;;;;;;18.30;16.50;;;;;;;;;;502957;28;1294;-77
2023/04/07 03:20:09;;;;;;;17.77;16.17;;;;;;;;;;499007;28;1287;-76
2023/04/07 03:20:41;;;;;;;17.63;16.02;;;;;;;;;;500211;28;1104;-77
2023/04/07 03:21:40;;;;;;;18.80;17.00;;;;;;;;;;494490;28;1401;-76
2023/04/07 03:22:08;;;;;;;;;;;;;;;;;;;;;
2023/04/07 03:22:24;;;;;;;17.50;15.90;;;;;;;;;;495428;28;1253;-76
2023/04/07 03:22:43;;;;;;;16.48;14.98;;;;;;;;;;493333;28;1995;-77
2023/04/07 03:23:16;;;;;;;16.23;14.73;;;;;;;;;;501529;28;1402;-77
2023/04/07 03:24:04;;;;;;;16.50;15.00;;;;;;;;;;496688;28;1298;-76
2023/04/07 03:24:32;;;;;;;;;;;;;;;;;;;;;
2023/04/07 03:26:00;;;;;;;16.77;15.27;;;;;;;;;;487875;28;1246;-76
2023/04/07 03:26:16;;;;;;;16.45;14.85;;;;;;;;;;486821;28;1312;-76
2023/04/07 03:26:36;;;;;;;17.83;16.05;;;;;;;;;;485041;28;1615;-76
2023/04/07 03:27:00;;;;;;;18.60;16.73;;;;;;;;;;492802;28;1454;-76
2023/04/07 03:27:17;;;;;;;18.88;16.98;;;;;;;;;;499545;28;1330;-76
2023/04/07 03:27:32;;;;;;;18.02;16.23;;;;;;;;;;495284;28;1530;-76
2023/04/07 03:27:51;;;;;;;17.73;16.02;;;;;;;;;;493295;28;1489;-77
2023/04/07 03:28:13;;;;;;;18.80;16.92;;;;;;;;;;492760;28;1365;-77
2023/04/07 03:28:29;;;;;;;18.65;16.90;;;;;;;;;;487683;28;1102;-76
2023/04/07 03:29:20;;;;;;;19.20;17.40;;;;;;;;;;488467;28;1487;-76
2023/04/07 03:30:42;;;;;;;18.58;16.67;;;;;;;;;;492401;28;1261;-76
2023/04/07 03:31:10;;;;;;;20.40;18.30;;;;;;;;;;488477;28;1326;-77
2023/04/07 03:31:36;;;;;;;16.60;15.10;;;;;;;;;;489994;28;1214;-74
2023/04/07 03:32:07;;;;;;;17.35;15.70;;;;;;;;;;492849;28;1626;-77
2023/04/07 03:33:11;;;;;;;18.00;16.20;;;;;;;;;;486691;28;1163;-76
2023/04/07 03:33:39;;;;;;;19.10;17.30;;;;;;;;;;492345;28;1587;-76
2023/04/07 03:34:30;;;;;;;20.20;18.13;;;;;;;;;;489707;28;1445;-77
2023/04/07 03:35:08;;;;;;;19.40;17.40;;;;;;;;;;485346;29;1350;-77
2023/04/07 03:35:38;;;;;;;20.55;18.55;;;;;;;;;;481169;29;1363;-77
2023/04/07 03:35:57;;;;;;;19.48;17.52;;;;;;;;;;483334;29;1381;-77
2023/04/07 03:36:39;;;;;;;18.83;16.92;;;;;;;;;;485122;29;1168;-76
2023/04/07 03:36:55;;;;;;;19.58;17.63;;;;;;;;;;478999;29;1304;-77
2023/04/07 03:42:08;;;;;;;;;;;;;;;;;;;;;
2023/04/07 03:43:32;;;;;;;22.65;20.25;;;;;;;;;;481651;29;911;-77
2023/04/07 03:43:57;;;;;;;21.27;19.15;;;;;;;;;;481254;29;1324;-77
2023/04/07 03:44:38;;;;;;;21.27;19.08;;;;;;;;;;475134;29;1774;-78
2023/04/07 03:45:57;;;;;;;22.15;19.77;;;;;;;;;;478504;29;1794;-78
2023/04/07 03:48:58;;;;;;;17.13;15.48;;;;;;;;;;504006;27;20877;-76
2023/04/07 03:50:07;;;;;;;18.70;16.90;;;;;;;;;;491535;28;1169;-77
2023/04/07 03:50:41;;;;;;;19.33;17.50;;;;;;;;;;491339;28;1785;-77
2023/04/07 03:51:24;;;;;;;20.48;18.38;;;;;;;;;;489811;28;1505;-77
2023/04/07 03:52:42;;;;;;;19.35;17.45;;;;;;;;;;478087;29;1311;-77
2023/04/07 03:53:00;;;;;;;17.52;15.82;;;;;;;;;;486451;28;1039;-76
2023/04/07 03:53:36;;;;;;;18.65;16.85;;;;;;;;;;484311;28;1912;-76
2023/04/07 03:54:25;;;;;;;20.15;18.15;;;;;;;;;;493617;28;1636;-77
2023/04/07 03:54:53;;;;;;;17.65;16.05;;;;;;;;;;485995;28;1325;-77
2023/04/07 03:55:55;;;;;;;20.30;18.30;;;;;;;;;;486574;28;1219;-76
2023/04/07 03:56:46;;;;;;;19.85;17.77;;;;;;;;;;487637;28;1342;-78
2023/04/07 03:58:19;;;;;;;17.52;15.85;;;;;;;;;;484371;28;1239;-77
2023/04/07 03:58:43;;;;;;;15.82;14.43;;;;;;;;;;476911;29;1397;-76
2023/04/07 03:59:12;;;;;;;;;;;;;;;;;;;;;
2023/04/07 03:59:29;;;;;;;16.95;15.35;;;;;;;;;;474606;29;1320;-76
2023/04/07 04:00:08;;;;;;;17.25;15.65;;;;;;;;;;477927;29;1342;-77
2023/04/07 04:00:33;;;;;;;;;;;;;;;;;;;;;
2023/04/07 04:00:59;;;;;;;;;;;;;;;;;;;;;
2023/04/07 04:02:09;;;;;;;16.45;14.95;;;;;;;;;;477225;29;1450;-76
2023/04/07 04:02:13;;;;;;;17.40;15.70;;;;;;;;;;480648;29;1127;-76
2023/04/07 04:02:24;;;;;;;15.75;14.25;;;;;;;;;;475738;29;1248;-77
2023/04/07 04:02:40;;;;;;;14.80;13.43;;;;;;;;;;479023;29;1522;-76
2023/04/07 04:03:31;;;;;;;14.80;13.40;;;;;;;;;;479030;29;1342;-77
2023/04/07 04:04:25;;;;;;;16.45;14.95;;;;;;;;;;471934;29;1384;-76
2023/04/07 04:05:07;;;;;;;17.02;15.32;;;;;;;;;;473075;29;1291;-77
2023/04/07 04:05:34;;;;;;;17.52;15.75;;;;;;;;;;471063;29;1945;-76
2023/04/07 04:05:56;;;;;;;17.45;15.75;;;;;;;;;;470383;29;1407;-76
2023/04/07 04:07:05;;;;;;;17.88;16.08;;;;;;;;;;476306;29;1220;-77
2023/04/07 04:07:14;;;;;;;15.60;14.15;;;;;;;;;;469873;29;1666;-77
2023/04/07 04:08:59;;;;;;;15.82;14.32;;;;;;;;;;470201;29;1428;-76
2023/04/07 04:09:40;;;;;;;15.73;14.32;;;;;;;;;;466149;29;1235;-76
2023/04/07 04:09:57;;;;;;;17.23;15.52;;;;;;;;;;468905;29;1168;-76
2023/04/07 04:10:15;;;;;;;17.00;15.35;;;;;;;;;;467346;30;1294;-77
2023/04/07 04:10:31;;;;;;;16.58;15.07;;;;;;;;;;465594;30;1160;-77
2023/04/07 04:11:21;;;;;;;17.08;15.45;;;;;;;;;;463819;30;1242;-77
2023/04/07 04:12:23;;;;;;;18.38;16.58;;;;;;;;;;467883;30;1461;-78
2023/04/07 04:13:06;;;;;;;16.70;15.07;;;;;;;;;;466980;29;1130;-77
2023/04/07 04:13:45;;;;;;;18.20;16.45;;;;;;;;;;464265;29;1384;-76
2023/04/07 04:14:22;;;;;;;15.55;14.05;;;;;;;;;;466793;30;1186;-77
2023/04/07 04:14:43;;;;;;;16.05;14.52;;;;;;;;;;465006;30;1230;-77
2023/04/07 04:15:37;;;;;;;16.05;14.55;;;;;;;;;;466139;30;1598;-78
2023/04/07 04:17:04;;;;;;;15.65;14.15;;;;;;;;;;472544;29;1147;-77
2023/04/07 04:17:43;;;;;;;15.10;13.65;;;;;;;;;;468729;29;1293;-76
2023/04/07 04:18:04;;;;;;;16.85;15.25;;;;;;;;;;469949;29;1206;-77
2023/04/07 04:18:46;;;;;;;16.13;14.63;;;;;;;;;;470960;29;1253;-77
2023/04/07 04:19:12;;;;;;;14.55;13.15;;;;;;;;;;467489;29;1434;-76
2023/04/07 04:19:40;;;;;;;15.18;13.77;;;;;;;;;;467773;29;1369;-77
2023/04/07 04:20:37;;;;;;;15.75;14.23;;;;;;;;;;470267;29;1371;-77